sensor_id;sensor_type;location;lat;lon;timestamp;P1;durP1;ratioP1;P2;durP2;ratioP2
51664;SDS011;37751;52.408;12.536;2023-02-18T00:01:37;12.77;;;1.67;;
51664;SDS011;37751;52.408;12.536;2023-02-18T00:04:05;12.90;;;2.00;;
51664;SDS011;37751;52.408;12.536;2023-02-18T00:06:34;11.23;;;1.83;;
51664;SDS011;37751;52.408;12.536;2023-02-18T00:09:02;16.93;;;2.50;;
51664;SDS011;37751;52.408;12.536;2023-02-18T00:11:32;17.03;;;2.87;;
51664;SDS011;37751;52.408;12.536;2023-02-18T00:14:03;12.77;;;2.37;;
51664;SDS011;37751;52.408;12.536;2023-02-18T00:16:37;16.77;;;2.57;;
51664;SDS011;37751;52.408;12.536;2023-02-18T00:19:06;12.80;;;2.17;;
51664;SDS011;37751;52.408;12.536;2023-02-18T00:21:37;15.20;;;2.47;;
51664;SDS011;37751;52.408;12.536;2023-02-18T00:24:05;13.63;;;2.00;;
51664;SDS011;37751;52.408;12.536;2023-02-18T00:26:35;17.67;;;2.57;;
51664;SDS011;37751;52.408;12.536;2023-02-18T00:29:02;15.13;;;2.60;;
51664;SDS011;37751;52.408;12.536;2023-02-18T00:31:31;9.80;;;1.90;;
51664;SDS011;37751;52.408;12.536;2023-02-18T00:34:03;15.53;;;2.90;;
51664;SDS011;37751;52.408;12.536;2023-02-18T00:36:33;10.33;;;1.70;;
51664;SDS011;37751;52.408;12.536;2023-02-18T00:39:03;15.03;;;3.03;;
51664;SDS011;37751;52.408;12.536;2023-02-18T00:41:34;8.57;;;1.73;;
51664;SDS011;37751;52.408;12.536;2023-02-18T00:44:03;16.80;;;2.27;;
51664;SDS011;37751;52.408;12.536;2023-02-18T00:46:33;16.63;;;3.50;;
51664;SDS011;37751;52.408;12.536;2023-02-18T00:49:01;15.17;;;1.80;;
51664;SDS011;37751;52.408;12.536;2023-02-18T00:51:30;17.73;;;2.57;;
51664;SDS011;37751;52.408;12.536;2023-02-18T00:53:58;17.37;;;2.20;;
51664;SDS011;37751;52.408;12.536;2023-02-18T00:56:26;11.77;;;2.40;;
51664;SDS011;37751;52.408;12.536;2023-02-18T00:58:54;15.27;;;2.73;;
51664;SDS011;37751;52.408;12.536;2023-02-18T01:01:22;14.73;;;2.20;;
51664;SDS011;37751;52.408;12.536;2023-02-18T01:03:50;11.23;;;1.97;;
51664;SDS011;37751;52.408;12.536;2023-02-18T01:06:18;18.07;;;2.47;;
51664;SDS011;37751;52.408;12.536;2023-02-18T01:08:48;11.43;;;2.10;;
51664;SDS011;37751;52.408;12.536;2023-02-18T01:11:16;9.60;;;1.60;;
51664;SDS011;37751;52.408;12.536;2023-02-18T01:13:45;9.83;;;1.80;;
51664;SDS011;37751;52.408;12.536;2023-02-18T01:16:13;18.73;;;2.23;;
51664;SDS011;37751;52.408;12.536;2023-02-18T01:18:40;13.20;;;1.87;;
51664;SDS011;37751;52.408;12.536;2023-02-18T01:21:08;17.20;;;1.90;;
51664;SDS011;37751;52.408;12.536;2023-02-18T01:23:37;13.17;;;2.27;;
51664;SDS011;37751;52.408;12.536;2023-02-18T01:26:07;16.17;;;1.93;;
51664;SDS011;37751;52.408;12.536;2023-02-18T01:28:38;13.27;;;2.80;;
51664;SDS011;37751;52.408;12.536;2023-02-18T01:31:10;16.73;;;2.10;;
51664;SDS011;37751;52.408;12.536;2023-02-18T01:34:03;11.27;;;2.23;;
51664;SDS011;37751;52.408;12.536;2023-02-18T01:36:31;15.33;;;2.23;;
51664;SDS011;37751;52.408;12.536;2023-02-18T01:38:58;16.00;;;2.17;;
51664;SDS011;37751;52.408;12.536;2023-02-18T01:41:26;8.67;;;1.70;;
51664;SDS011;37751;52.408;12.536;2023-02-18T01:44:10;11.47;;;2.53;;
51664;SDS011;37751;52.408;12.536;2023-02-18T01:46:41;12.50;;;1.60;;
51664;SDS011;37751;52.408;12.536;2023-02-18T01:49:09;17.90;;;2.73;;
51664;SDS011;37751;52.408;12.536;2023-02-18T01:54:47;11.87;;;1.83;;
51664;SDS011;37751;52.408;12.536;2023-02-18T01:57:26;17.83;;;2.00;;
51664;SDS011;37751;52.408;12.536;2023-02-18T02:00:08;9.93;;;1.73;;
51664;SDS011;37751;52.408;12.536;2023-02-18T02:02:46;12.30;;;2.30;;
51664;SDS011;37751;52.408;12.536;2023-02-18T02:05:18;15.33;;;1.97;;
51664;SDS011;37751;52.408;12.536;2023-02-18T02:07:49;9.03;;;1.80;;
51664;SDS011;37751;52.408;12.536;2023-02-18T02:10:19;14.17;;;1.57;;
51664;SDS011;37751;52.408;12.536;2023-02-18T02:24:39;9.37;;;1.30;;
51664;SDS011;37751;52.408;12.536;2023-02-18T02:27:24;10.27;;;1.63;;
51664;SDS011;37751;52.408;12.536;2023-02-18T02:36:39;11.73;;;1.60;;
51664;SDS011;37751;52.408;12.536;2023-02-18T02:42:03;10.93;;;2.00;;
51664;SDS011;37751;52.408;12.536;2023-02-18T02:47:48;7.10;;;1.47;;
51664;SDS011;37751;52.408;12.536;2023-02-18T02:53:15;6.60;;;1.53;;
51664;SDS011;37751;52.408;12.536;2023-02-18T02:55:48;17.60;;;1.60;;
51664;SDS011;37751;52.408;12.536;2023-02-18T02:58:19;11.27;;;1.93;;
51664;SDS011;37751;52.408;12.536;2023-02-18T03:00:51;9.17;;;1.40;;
51664;SDS011;37751;52.408;12.536;2023-02-18T03:03:51;6.80;;;1.53;;
51664;SDS011;37751;52.408;12.536;2023-02-18T03:06:46;10.43;;;1.93;;
51664;SDS011;37751;52.408;12.536;2023-02-18T03:15:04;11.70;;;1.73;;
51664;SDS011;37751;52.408;12.536;2023-02-18T03:18:01;14.23;;;1.57;;
51664;SDS011;37751;52.408;12.536;2023-02-18T03:23:24;9.60;;;1.40;;
51664;SDS011;37751;52.408;12.536;2023-02-18T03:25:58;10.83;;;1.40;;
51664;SDS011;37751;52.408;12.536;2023-02-18T03:28:29;9.37;;;2.10;;
51664;SDS011;37751;52.408;12.536;2023-02-18T03:31:02;8.93;;;1.97;;
51664;SDS011;37751;52.408;12.536;2023-02-18T03:34:00;12.00;;;2.07;;
51664;SDS011;37751;52.408;12.536;2023-02-18T03:36:42;8.17;;;1.70;;
51664;SDS011;37751;52.408;12.536;2023-02-18T03:39:14;13.27;;;2.70;;
51664;SDS011;37751;52.408;12.536;2023-02-18T03:41:44;15.27;;;3.93;;
51664;SDS011;37751;52.408;12.536;2023-02-18T03:44:13;7.67;;;1.67;;
51664;SDS011;37751;52.408;12.536;2023-02-18T03:46:44;11.33;;;2.17;;
51664;SDS011;37751;52.408;12.536;2023-02-18T03:49:12;9.77;;;2.40;;
51664;SDS011;37751;52.408;12.536;2023-02-18T03:51:42;14.73;;;2.63;;
51664;SDS011;37751;52.408;12.536;2023-02-18T03:54:10;9.93;;;1.93;;
51664;SDS011;37751;52.408;12.536;2023-02-18T03:56:41;6.73;;;1.77;;
51664;SDS011;37751;52.408;12.536;2023-02-18T03:59:12;10.20;;;1.47;;
51664;SDS011;37751;52.408;12.536;2023-02-18T04:01:40;10.70;;;1.80;;
51664;SDS011;37751;52.408;12.536;2023-02-18T04:04:08;10.70;;;1.60;;
51664;SDS011;37751;52.408;12.536;2023-02-18T04:06:36;6.73;;;1.67;;
51664;SDS011;37751;52.408;12.536;2023-02-18T04:09:03;8.10;;;1.83;;
51664;SDS011;37751;52.408;12.536;2023-02-18T04:11:38;11.70;;;1.90;;
51664;SDS011;37751;52.408;12.536;2023-02-18T04:14:07;4.90;;;1.20;;
51664;SDS011;37751;52.408;12.536;2023-02-18T04:16:36;13.60;;;1.43;;
51664;SDS011;37751;52.408;12.536;2023-02-18T04:19:03;11.33;;;1.20;;
51664;SDS011;37751;52.408;12.536;2023-02-18T04:21:32;7.57;;;1.60;;
51664;SDS011;37751;52.408;12.536;2023-02-18T04:24:00;6.23;;;0.93;;
51664;SDS011;37751;52.408;12.536;2023-02-18T04:26:28;11.03;;;2.10;;
51664;SDS011;37751;52.408;12.536;2023-02-18T04:28:56;14.33;;;1.93;;
51664;SDS011;37751;52.408;12.536;2023-02-18T04:31:24;9.47;;;1.30;;
51664;SDS011;37751;52.408;12.536;2023-02-18T04:33:51;10.30;;;1.50;;
51664;SDS011;37751;52.408;12.536;2023-02-18T04:36:19;12.53;;;2.13;;
51664;SDS011;37751;52.408;12.536;2023-02-18T04:38:47;7.77;;;1.00;;
51664;SDS011;37751;52.408;12.536;2023-02-18T04:41:15;6.33;;;1.83;;
51664;SDS011;37751;52.408;12.536;2023-02-18T04:43:42;6.97;;;1.47;;
51664;SDS011;37751;52.408;12.536;2023-02-18T04:46:10;10.67;;;1.80;;
51664;SDS011;37751;52.408;12.536;2023-02-18T04:48:39;8.73;;;1.67;;
51664;SDS011;37751;52.408;12.536;2023-02-18T04:51:07;9.80;;;1.27;;
51664;SDS011;37751;52.408;12.536;2023-02-18T04:53:38;6.53;;;1.50;;
51664;SDS011;37751;52.408;12.536;2023-02-18T04:56:06;10.57;;;2.80;;
51664;SDS011;37751;52.408;12.536;2023-02-18T04:58:34;8.87;;;2.27;;
51664;SDS011;37751;52.408;12.536;2023-02-18T05:01:03;13.80;;;2.57;;
51664;SDS011;37751;52.408;12.536;2023-02-18T05:03:32;8.30;;;1.93;;
51664;SDS011;37751;52.408;12.536;2023-02-18T05:06:00;12.87;;;1.77;;
51664;SDS011;37751;52.408;12.536;2023-02-18T05:08:28;15.83;;;2.60;;
51664;SDS011;37751;52.408;12.536;2023-02-18T05:10:56;7.30;;;1.60;;
51664;SDS011;37751;52.408;12.536;2023-02-18T05:13:24;10.93;;;2.37;;
51664;SDS011;37751;52.408;12.536;2023-02-18T05:15:52;15.63;;;2.80;;
51664;SDS011;37751;52.408;12.536;2023-02-18T05:18:20;13.60;;;2.80;;
51664;SDS011;37751;52.408;12.536;2023-02-18T05:20:48;8.57;;;1.60;;
51664;SDS011;37751;52.408;12.536;2023-02-18T05:23:15;15.47;;;2.27;;
51664;SDS011;37751;52.408;12.536;2023-02-18T05:25:44;10.20;;;1.40;;
51664;SDS011;37751;52.408;12.536;2023-02-18T05:28:12;15.00;;;2.80;;
51664;SDS011;37751;52.408;12.536;2023-02-18T05:30:40;12.97;;;2.33;;
51664;SDS011;37751;52.408;12.536;2023-02-18T05:33:07;10.40;;;2.00;;
51664;SDS011;37751;52.408;12.536;2023-02-18T05:35:35;12.47;;;2.10;;
51664;SDS011;37751;52.408;12.536;2023-02-18T05:38:03;10.00;;;2.30;;
51664;SDS011;37751;52.408;12.536;2023-02-18T05:40:30;12.67;;;2.30;;
51664;SDS011;37751;52.408;12.536;2023-02-18T05:42:58;15.10;;;3.17;;
51664;SDS011;37751;52.408;12.536;2023-02-18T05:45:26;14.40;;;3.93;;
51664;SDS011;37751;52.408;12.536;2023-02-18T05:47:53;10.43;;;2.10;;
51664;SDS011;37751;52.408;12.536;2023-02-18T05:50:21;21.23;;;2.67;;
51664;SDS011;37751;52.408;12.536;2023-02-18T05:52:49;13.20;;;2.00;;
51664;SDS011;37751;52.408;12.536;2023-02-18T05:55:16;12.03;;;1.80;;
51664;SDS011;37751;52.408;12.536;2023-02-18T05:57:44;13.17;;;2.63;;
51664;SDS011;37751;52.408;12.536;2023-02-18T06:00:12;10.87;;;1.93;;
51664;SDS011;37751;52.408;12.536;2023-02-18T06:02:41;15.83;;;1.60;;
51664;SDS011;37751;52.408;12.536;2023-02-18T06:05:09;6.27;;;1.33;;
51664;SDS011;37751;52.408;12.536;2023-02-18T06:07:37;13.03;;;1.97;;
51664;SDS011;37751;52.408;12.536;2023-02-18T06:10:05;11.57;;;2.37;;
51664;SDS011;37751;52.408;12.536;2023-02-18T06:12:33;6.90;;;1.10;;
51664;SDS011;37751;52.408;12.536;2023-02-18T06:15:01;11.50;;;2.03;;
51664;SDS011;37751;52.408;12.536;2023-02-18T06:17:29;8.97;;;1.60;;
51664;SDS011;37751;52.408;12.536;2023-02-18T06:19:57;14.43;;;1.97;;
51664;SDS011;37751;52.408;12.536;2023-02-18T06:22:25;8.97;;;1.40;;
51664;SDS011;37751;52.408;12.536;2023-02-18T06:24:52;8.27;;;2.10;;
51664;SDS011;37751;52.408;12.536;2023-02-18T06:27:20;8.07;;;2.13;;
51664;SDS011;37751;52.408;12.536;2023-02-18T06:29:47;15.00;;;2.23;;
51664;SDS011;37751;52.408;12.536;2023-02-18T06:32:15;7.00;;;1.50;;
51664;SDS011;37751;52.408;12.536;2023-02-18T06:34:43;10.57;;;2.47;;
51664;SDS011;37751;52.408;12.536;2023-02-18T06:37:11;10.93;;;1.83;;
51664;SDS011;37751;52.408;12.536;2023-02-18T06:39:38;11.87;;;1.77;;
51664;SDS011;37751;52.408;12.536;2023-02-18T06:42:06;6.93;;;1.40;;
51664;SDS011;37751;52.408;12.536;2023-02-18T06:44:34;9.30;;;1.70;;
51664;SDS011;37751;52.408;12.536;2023-02-18T06:47:04;8.60;;;1.40;;
51664;SDS011;37751;52.408;12.536;2023-02-18T06:49:31;7.67;;;1.23;;
51664;SDS011;37751;52.408;12.536;2023-02-18T06:51:59;8.80;;;1.50;;
51664;SDS011;37751;52.408;12.536;2023-02-18T06:54:27;9.90;;;1.43;;
51664;SDS011;37751;52.408;12.536;2023-02-18T06:56:54;10.90;;;1.60;;
51664;SDS011;37751;52.408;12.536;2023-02-18T06:59:22;7.70;;;1.23;;
51664;SDS011;37751;52.408;12.536;2023-02-18T07:01:50;13.03;;;2.13;;
51664;SDS011;37751;52.408;12.536;2023-02-18T07:04:18;13.83;;;1.40;;
51664;SDS011;37751;52.408;12.536;2023-02-18T07:06:45;10.73;;;1.83;;
51664;SDS011;37751;52.408;12.536;2023-02-18T07:09:13;10.73;;;2.33;;
51664;SDS011;37751;52.408;12.536;2023-02-18T07:11:41;8.20;;;1.97;;
51664;SDS011;37751;52.408;12.536;2023-02-18T07:14:09;13.43;;;2.30;;
51664;SDS011;37751;52.408;12.536;2023-02-18T07:16:36;12.27;;;2.10;;
51664;SDS011;37751;52.408;12.536;2023-02-18T07:19:04;6.87;;;1.53;;
51664;SDS011;37751;52.408;12.536;2023-02-18T07:21:32;8.53;;;2.00;;
51664;SDS011;37751;52.408;12.536;2023-02-18T07:24:00;9.63;;;2.00;;
51664;SDS011;37751;52.408;12.536;2023-02-18T07:26:27;10.47;;;1.70;;
51664;SDS011;37751;52.408;12.536;2023-02-18T07:28:55;14.60;;;1.87;;
51664;SDS011;37751;52.408;12.536;2023-02-18T07:31:23;8.07;;;1.40;;
51664;SDS011;37751;52.408;12.536;2023-02-18T07:33:51;10.67;;;1.53;;
51664;SDS011;37751;52.408;12.536;2023-02-18T07:36:19;9.23;;;1.97;;
51664;SDS011;37751;52.408;12.536;2023-02-18T07:38:46;10.37;;;2.03;;
51664;SDS011;37751;52.408;12.536;2023-02-18T07:41:18;11.30;;;1.90;;
51664;SDS011;37751;52.408;12.536;2023-02-18T07:43:48;8.87;;;1.60;;
51664;SDS011;37751;52.408;12.536;2023-02-18T07:46:17;7.13;;;2.23;;
51664;SDS011;37751;52.408;12.536;2023-02-18T07:48:45;8.40;;;1.90;;
51664;SDS011;37751;52.408;12.536;2023-02-18T07:51:13;13.27;;;2.03;;
51664;SDS011;37751;52.408;12.536;2023-02-18T07:53:43;14.00;;;1.53;;
51664;SDS011;37751;52.408;12.536;2023-02-18T07:56:11;8.87;;;2.13;;
51664;SDS011;37751;52.408;12.536;2023-02-18T07:58:39;10.37;;;2.00;;
51664;SDS011;37751;52.408;12.536;2023-02-18T08:01:07;10.57;;;2.40;;
51664;SDS011;37751;52.408;12.536;2023-02-18T08:03:41;12.67;;;1.70;;
51664;SDS011;37751;52.408;12.536;2023-02-18T08:06:16;8.83;;;2.20;;
51664;SDS011;37751;52.408;12.536;2023-02-18T08:09:06;8.40;;;2.00;;
51664;SDS011;37751;52.408;12.536;2023-02-18T08:11:34;13.10;;;2.30;;
51664;SDS011;37751;52.408;12.536;2023-02-18T08:14:02;11.17;;;2.43;;
51664;SDS011;37751;52.408;12.536;2023-02-18T08:16:30;9.30;;;1.60;;
51664;SDS011;37751;52.408;12.536;2023-02-18T08:18:58;9.33;;;1.93;;
51664;SDS011;37751;52.408;12.536;2023-02-18T08:21:27;11.30;;;2.33;;
51664;SDS011;37751;52.408;12.536;2023-02-18T08:23:56;11.13;;;1.90;;
51664;SDS011;37751;52.408;12.536;2023-02-18T08:26:25;8.63;;;2.07;;
51664;SDS011;37751;52.408;12.536;2023-02-18T08:28:55;8.30;;;2.10;;
51664;SDS011;37751;52.408;12.536;2023-02-18T08:31:27;16.30;;;2.47;;
51664;SDS011;37751;52.408;12.536;2023-02-18T08:33:57;14.53;;;4.00;;
51664;SDS011;37751;52.408;12.536;2023-02-18T08:36:26;11.27;;;1.87;;
51664;SDS011;37751;52.408;12.536;2023-02-18T08:38:55;14.90;;;2.93;;
51664;SDS011;37751;52.408;12.536;2023-02-18T08:41:24;15.07;;;2.77;;
51664;SDS011;37751;52.408;12.536;2023-02-18T08:43:52;14.87;;;2.30;;
51664;SDS011;37751;52.408;12.536;2023-02-18T08:46:20;14.60;;;2.23;;
51664;SDS011;37751;52.408;12.536;2023-02-18T08:49:02;10.37;;;1.70;;
51664;SDS011;37751;52.408;12.536;2023-02-18T08:51:30;8.70;;;1.80;;
51664;SDS011;37751;52.408;12.536;2023-02-18T08:54:01;9.47;;;1.57;;
51664;SDS011;37751;52.408;12.536;2023-02-18T08:56:29;14.30;;;2.87;;
51664;SDS011;37751;52.408;12.536;2023-02-18T08:58:58;11.03;;;1.93;;
51664;SDS011;37751;52.408;12.536;2023-02-18T09:01:29;12.43;;;1.97;;
51664;SDS011;37751;52.408;12.536;2023-02-18T09:03:59;13.50;;;2.20;;
51664;SDS011;37751;52.408;12.536;2023-02-18T09:06:29;10.83;;;1.60;;
51664;SDS011;37751;52.408;12.536;2023-02-18T09:09:00;18.90;;;2.60;;
51664;SDS011;37751;52.408;12.536;2023-02-18T09:11:28;11.23;;;2.13;;
51664;SDS011;37751;52.408;12.536;2023-02-18T09:13:56;15.43;;;2.50;;
51664;SDS011;37751;52.408;12.536;2023-02-18T09:16:24;9.70;;;1.87;;
51664;SDS011;37751;52.408;12.536;2023-02-18T09:18:54;16.73;;;2.70;;
51664;SDS011;37751;52.408;12.536;2023-02-18T09:21:25;13.23;;;2.87;;
51664;SDS011;37751;52.408;12.536;2023-02-18T09:23:53;13.73;;;2.30;;
51664;SDS011;37751;52.408;12.536;2023-02-18T09:26:21;14.43;;;2.60;;
51664;SDS011;37751;52.408;12.536;2023-02-18T09:28:53;15.27;;;2.70;;
51664;SDS011;37751;52.408;12.536;2023-02-18T09:31:23;16.07;;;3.07;;
51664;SDS011;37751;52.408;12.536;2023-02-18T09:34:02;15.60;;;3.20;;
51664;SDS011;37751;52.408;12.536;2023-02-18T09:36:31;10.43;;;2.60;;
51664;SDS011;37751;52.408;12.536;2023-02-18T09:38:59;15.00;;;2.80;;
51664;SDS011;37751;52.408;12.536;2023-02-18T09:44:05;14.97;;;2.60;;
51664;SDS011;37751;52.408;12.536;2023-02-18T09:46:45;14.03;;;3.07;;
51664;SDS011;37751;52.408;12.536;2023-02-18T09:49:47;10.63;;;2.63;;
51664;SDS011;37751;52.408;12.536;2023-02-18T09:52:21;14.40;;;3.67;;
51664;SDS011;37751;52.408;12.536;2023-02-18T09:54:56;10.97;;;3.20;;
51664;SDS011;37751;52.408;12.536;2023-02-18T09:57:28;9.97;;;3.47;;
51664;SDS011;37751;52.408;12.536;2023-02-18T10:00:31;12.53;;;3.00;;
51664;SDS011;37751;52.408;12.536;2023-02-18T10:03:15;8.90;;;2.93;;
51664;SDS011;37751;52.408;12.536;2023-02-18T10:05:56;4.60;;;3.30;;
51664;SDS011;37751;52.408;12.536;2023-02-18T10:08:35;7.37;;;3.33;;
51664;SDS011;37751;52.408;12.536;2023-02-18T10:11:21;10.50;;;3.20;;
51664;SDS011;37751;52.408;12.536;2023-02-18T10:13:55;7.43;;;3.10;;
51664;SDS011;37751;52.408;12.536;2023-02-18T10:16:24;7.47;;;3.33;;
51664;SDS011;37751;52.408;12.536;2023-02-18T10:18:54;6.57;;;3.30;;
51664;SDS011;37751;52.408;12.536;2023-02-18T10:21:33;7.27;;;4.00;;
51664;SDS011;37751;52.408;12.536;2023-02-18T10:27:07;11.60;;;5.23;;
51664;SDS011;37751;52.408;12.536;2023-02-18T10:29:44;7.70;;;4.23;;
51664;SDS011;37751;52.408;12.536;2023-02-18T10:32:22;8.00;;;4.60;;
51664;SDS011;37751;52.408;12.536;2023-02-18T10:35:02;7.93;;;3.93;;
51664;SDS011;37751;52.408;12.536;2023-02-18T10:38:08;8.40;;;4.00;;
51664;SDS011;37751;52.408;12.536;2023-02-18T10:46:52;7.20;;;4.20;;
51664;SDS011;37751;52.408;12.536;2023-02-18T10:50:02;5.20;;;3.70;;
51664;SDS011;37751;52.408;12.536;2023-02-18T10:53:01;8.67;;;4.13;;
51664;SDS011;37751;52.408;12.536;2023-02-18T10:55:45;7.67;;;3.73;;
51664;SDS011;37751;52.408;12.536;2023-02-18T11:01:04;5.37;;;3.53;;
51664;SDS011;37751;52.408;12.536;2023-02-18T11:06:38;5.93;;;3.70;;
51664;SDS011;37751;52.408;12.536;2023-02-18T11:12:14;6.47;;;4.07;;
51664;SDS011;37751;52.408;12.536;2023-02-18T11:15:07;4.93;;;3.70;;
51664;SDS011;37751;52.408;12.536;2023-02-18T11:17:46;6.10;;;3.47;;
51664;SDS011;37751;52.408;12.536;2023-02-18T11:22:51;7.93;;;4.40;;
51664;SDS011;37751;52.408;12.536;2023-02-18T11:26:03;8.03;;;5.10;;
51664;SDS011;37751;52.408;12.536;2023-02-18T11:28:48;9.30;;;4.93;;
51664;SDS011;37751;52.408;12.536;2023-02-18T11:31:29;9.17;;;4.73;;
51664;SDS011;37751;52.408;12.536;2023-02-18T11:34:12;9.63;;;5.00;;
51664;SDS011;37751;52.408;12.536;2023-02-18T11:36:55;6.83;;;5.43;;
51664;SDS011;37751;52.408;12.536;2023-02-18T11:39:46;8.70;;;5.57;;
51664;SDS011;37751;52.408;12.536;2023-02-18T11:42:18;11.20;;;6.77;;
51664;SDS011;37751;52.408;12.536;2023-02-18T11:44:52;10.23;;;6.33;;
51664;SDS011;37751;52.408;12.536;2023-02-18T11:47:24;13.60;;;7.70;;
51664;SDS011;37751;52.408;12.536;2023-02-18T11:49:58;10.03;;;6.43;;
51664;SDS011;37751;52.408;12.536;2023-02-18T11:57:56;11.77;;;5.82;;
51664;SDS011;37751;52.408;12.536;2023-02-18T12:03:14;10.40;;;5.43;;
51664;SDS011;37751;52.408;12.536;2023-02-18T12:06:02;9.33;;;5.80;;
51664;SDS011;37751;52.408;12.536;2023-02-18T12:08:43;8.90;;;4.70;;
51664;SDS011;37751;52.408;12.536;2023-02-18T12:11:27;13.20;;;5.85;;
51664;SDS011;37751;52.408;12.536;2023-02-18T12:14:15;12.02;;;4.93;;
51664;SDS011;37751;52.408;12.536;2023-02-18T12:17:13;10.93;;;5.10;;
51664;SDS011;37751;52.408;12.536;2023-02-18T12:26:23;5.25;;;3.00;;
51664;SDS011;37751;52.408;12.536;2023-02-18T12:34:40;2.00;;;1.30;;
51664;SDS011;37751;52.408;12.536;2023-02-18T12:37:39;2.38;;;2.05;;
51664;SDS011;37751;52.408;12.536;2023-02-18T12:54:41;1.75;;;1.05;;
51664;SDS011;37751;52.408;12.536;2023-02-18T13:15:38;7.30;;;3.28;;
51664;SDS011;37751;52.408;12.536;2023-02-18T13:18:38;1.77;;;1.35;;
51664;SDS011;37751;52.408;12.536;2023-02-18T13:21:13;2.35;;;1.30;;
51664;SDS011;37751;52.408;12.536;2023-02-18T13:23:54;2.58;;;1.63;;
51664;SDS011;37751;52.408;12.536;2023-02-18T13:26:53;2.75;;;1.10;;
51664;SDS011;37751;52.408;12.536;2023-02-18T13:29:46;2.20;;;0.82;;
51664;SDS011;37751;52.408;12.536;2023-02-18T13:40:59;1.25;;;1.00;;
51664;SDS011;37751;52.408;12.536;2023-02-18T13:46:19;0.77;;;0.77;;
51664;SDS011;37751;52.408;12.536;2023-02-18T13:48:51;0.77;;;0.77;;
51664;SDS011;37751;52.408;12.536;2023-02-18T13:51:38;2.35;;;1.02;;
51664;SDS011;37751;52.408;12.536;2023-02-18T13:54:19;0.82;;;0.60;;
51664;SDS011;37751;52.408;12.536;2023-02-18T13:57:25;1.33;;;0.73;;
51664;SDS011;37751;52.408;12.536;2023-02-18T13:59:58;2.67;;;1.13;;
51664;SDS011;37751;52.408;12.536;2023-02-18T14:02:33;2.70;;;0.88;;
51664;SDS011;37751;52.408;12.536;2023-02-18T14:10:03;0.82;;;0.80;;
51664;SDS011;37751;52.408;12.536;2023-02-18T14:13:01;1.60;;;0.70;;
51664;SDS011;37751;52.408;12.536;2023-02-18T14:15:52;0.50;;;0.50;;
51664;SDS011;37751;52.408;12.536;2023-02-18T14:26:22;0.40;;;0.40;;
51664;SDS011;37751;52.408;12.536;2023-02-18T14:29:03;0.60;;;0.60;;
51664;SDS011;37751;52.408;12.536;2023-02-18T14:51:24;0.93;;;0.57;;
51664;SDS011;37751;52.408;12.536;2023-02-18T14:53:55;1.08;;;0.50;;
51664;SDS011;37751;52.408;12.536;2023-02-18T14:56:28;0.52;;;0.52;;
51664;SDS011;37751;52.408;12.536;2023-02-18T14:58:58;0.65;;;0.65;;
51664;SDS011;37751;52.408;12.536;2023-02-18T15:01:35;0.57;;;0.50;;
51664;SDS011;37751;52.408;12.536;2023-02-18T15:04:17;1.60;;;0.70;;
51664;SDS011;37751;52.408;12.536;2023-02-18T15:06:58;0.70;;;0.50;;
51664;SDS011;37751;52.408;12.536;2023-02-18T15:09:32;0.75;;;0.43;;
51664;SDS011;37751;52.408;12.536;2023-02-18T15:12:06;0.98;;;0.65;;
51664;SDS011;37751;52.408;12.536;2023-02-18T15:14:48;2.47;;;1.00;;
51664;SDS011;37751;52.408;12.536;2023-02-18T15:17:23;1.65;;;0.60;;
51664;SDS011;37751;52.408;12.536;2023-02-18T15:19:56;2.65;;;0.70;;
51664;SDS011;37751;52.408;12.536;2023-02-18T15:22:32;0.75;;;0.73;;
51664;SDS011;37751;52.408;12.536;2023-02-18T15:25:04;1.00;;;0.65;;
51664;SDS011;37751;52.408;12.536;2023-02-18T15:27:33;2.75;;;0.70;;
51664;SDS011;37751;52.408;12.536;2023-02-18T15:30:23;1.25;;;0.60;;
51664;SDS011;37751;52.408;12.536;2023-02-18T15:32:58;1.13;;;0.75;;
51664;SDS011;37751;52.408;12.536;2023-02-18T15:35:31;1.00;;;0.60;;
51664;SDS011;37751;52.408;12.536;2023-02-18T15:38:18;1.05;;;0.60;;
51664;SDS011;37751;52.408;12.536;2023-02-18T15:40:49;1.38;;;0.80;;
51664;SDS011;37751;52.408;12.536;2023-02-18T15:43:23;0.70;;;0.68;;
51664;SDS011;37751;52.408;12.536;2023-02-18T15:45:55;1.52;;;0.85;;
51664;SDS011;37751;52.408;12.536;2023-02-18T15:48:30;0.82;;;0.80;;
51664;SDS011;37751;52.408;12.536;2023-02-18T15:51:09;0.90;;;0.60;;
51664;SDS011;37751;52.408;12.536;2023-02-18T15:53:44;0.80;;;0.50;;
51664;SDS011;37751;52.408;12.536;2023-02-18T15:56:22;1.55;;;0.80;;
51664;SDS011;37751;52.408;12.536;2023-02-18T15:59:18;0.82;;;0.60;;
51664;SDS011;37751;52.408;12.536;2023-02-18T16:01:55;1.30;;;0.90;;
51664;SDS011;37751;52.408;12.536;2023-02-18T16:04:36;1.13;;;0.90;;
51664;SDS011;37751;52.408;12.536;2023-02-18T16:07:26;2.30;;;0.80;;
51664;SDS011;37751;52.408;12.536;2023-02-18T16:12:50;1.63;;;0.88;;
51664;SDS011;37751;52.408;12.536;2023-02-18T16:15:41;3.93;;;0.83;;
51664;SDS011;37751;52.408;12.536;2023-02-18T16:21:25;0.80;;;0.70;;
51664;SDS011;37751;52.408;12.536;2023-02-18T16:24:01;1.57;;;0.80;;
51664;SDS011;37751;52.408;12.536;2023-02-18T16:26:49;0.60;;;0.60;;
51664;SDS011;37751;52.408;12.536;2023-02-18T16:29:25;1.17;;;0.90;;
51664;SDS011;37751;52.408;12.536;2023-02-18T16:32:04;1.00;;;0.90;;
51664;SDS011;37751;52.408;12.536;2023-02-18T16:34:33;1.02;;;0.70;;
51664;SDS011;37751;52.408;12.536;2023-02-18T16:37:02;2.87;;;1.33;;
51664;SDS011;37751;52.408;12.536;2023-02-18T16:39:50;2.03;;;0.90;;
51664;SDS011;37751;52.408;12.536;2023-02-18T16:42:21;3.63;;;0.88;;
51664;SDS011;37751;52.408;12.536;2023-02-18T16:44:52;2.17;;;0.73;;
51664;SDS011;37751;52.408;12.536;2023-02-18T16:47:20;1.35;;;0.60;;
51664;SDS011;37751;52.408;12.536;2023-02-18T16:49:48;2.92;;;1.27;;
51664;SDS011;37751;52.408;12.536;2023-02-18T16:52:18;2.40;;;0.73;;
51664;SDS011;37751;52.408;12.536;2023-02-18T16:54:46;1.42;;;0.77;;
51664;SDS011;37751;52.408;12.536;2023-02-18T16:57:17;2.07;;;1.07;;
51664;SDS011;37751;52.408;12.536;2023-02-18T16:59:45;1.93;;;0.80;;
51664;SDS011;37751;52.408;12.536;2023-02-18T17:02:25;3.08;;;0.70;;
51664;SDS011;37751;52.408;12.536;2023-02-18T17:04:55;3.07;;;1.00;;
51664;SDS011;37751;52.408;12.536;2023-02-18T17:07:25;2.28;;;0.98;;
51664;SDS011;37751;52.408;12.536;2023-02-18T17:09:59;2.22;;;0.60;;
51664;SDS011;37751;52.408;12.536;2023-02-18T17:12:28;1.50;;;0.70;;
51664;SDS011;37751;52.408;12.536;2023-02-18T17:15:05;4.25;;;1.13;;
51664;SDS011;37751;52.408;12.536;2023-02-18T17:17:57;4.10;;;1.03;;
51664;SDS011;37751;52.408;12.536;2023-02-18T17:20:28;2.35;;;1.05;;
51664;SDS011;37751;52.408;12.536;2023-02-18T17:23:00;2.00;;;1.20;;
51664;SDS011;37751;52.408;12.536;2023-02-18T17:28:19;3.65;;;1.02;;
51664;SDS011;37751;52.408;12.536;2023-02-18T17:30:52;2.67;;;1.00;;
51664;SDS011;37751;52.408;12.536;2023-02-18T17:33:23;2.23;;;1.10;;
51664;SDS011;37751;52.408;12.536;2023-02-18T17:35:52;3.13;;;1.00;;
51664;SDS011;37751;52.408;12.536;2023-02-18T17:38:19;5.93;;;1.00;;
51664;SDS011;37751;52.408;12.536;2023-02-18T17:40:48;6.60;;;1.10;;
51664;SDS011;37751;52.408;12.536;2023-02-18T17:43:17;5.00;;;1.10;;
51664;SDS011;37751;52.408;12.536;2023-02-18T17:45:47;5.37;;;1.00;;
51664;SDS011;37751;52.408;12.536;2023-02-18T17:48:21;3.00;;;1.05;;
51664;SDS011;37751;52.408;12.536;2023-02-18T17:50:51;2.90;;;1.07;;
51664;SDS011;37751;52.408;12.536;2023-02-18T17:53:19;3.03;;;0.90;;